createdAt,value
2022-10-16T00:01:12.160Z,43.05
2022-10-16T00:03:40.813Z,40.65
2022-10-16T00:06:08.297Z,40.33
2022-10-16T00:08:35.726Z,40.83
2022-10-16T00:11:09.450Z,41.72
2022-10-16T00:13:38.172Z,40.50
2022-10-16T00:16:06.011Z,40.78
2022-10-16T00:18:32.944Z,39.72
2022-10-16T00:21:08.891Z,42.80
2022-10-16T00:23:36.438Z,41.08
2022-10-16T00:26:07.475Z,41.78
2022-10-16T00:28:35.714Z,40.05
2022-10-16T00:31:10.903Z,41.80
2022-10-16T00:33:38.968Z,41.90
2022-10-16T00:36:07.418Z,43.47
2022-10-16T00:38:34.384Z,42.22
2022-10-16T00:41:01.592Z,41.97
2022-10-16T00:43:47.312Z,41.28
2022-10-16T00:46:31.146Z,40.13
2022-10-16T00:49:11.171Z,40.13
2022-10-16T00:51:41.413Z,41.92
2022-10-16T00:54:16.491Z,39.97
2022-10-16T00:56:44.556Z,42.00
2022-10-16T00:59:26.561Z,42.22
2022-10-16T01:04:21.128Z,41.72
2022-10-16T01:06:58.946Z,40.45
2022-10-16T01:09:32.836Z,41.78
2022-10-16T01:12:13.488Z,40.50
2022-10-16T01:14:56.544Z,40.42
2022-10-16T01:17:29.208Z,41.30
2022-10-16T01:19:58.800Z,41.42
2022-10-16T01:22:34.209Z,42.40
2022-10-16T01:25:05.891Z,43.40
2022-10-16T01:27:37.027Z,43.20
2022-10-16T01:30:25.230Z,39.78
2022-10-16T01:33:02.234Z,44.08
2022-10-16T01:35:35.603Z,42.15
2022-10-16T01:38:20.333Z,42.97
2022-10-16T01:40:53.987Z,43.67
2022-10-16T01:43:26.251Z,42.65
2022-10-16T01:45:53.814Z,43.83
2022-10-16T01:48:22.213Z,45.40
2022-10-16T01:51:02.130Z,42.17
2022-10-16T01:53:29.426Z,41.88
2022-10-16T01:55:58.869Z,44.80
2022-10-16T01:58:28.963Z,41.40
2022-10-16T02:00:56.358Z,43.35
2022-10-16T02:03:23.213Z,43.20
2022-10-16T02:05:58.980Z,44.90
2022-10-16T02:08:29.237Z,43.15
2022-10-16T02:10:57.468Z,43.78
2022-10-16T02:13:35.344Z,43.58
2022-10-16T02:16:02.405Z,42.67
2022-10-16T02:18:31.707Z,42.92
2022-10-16T02:21:15.049Z,42.53
2022-10-16T02:24:07.442Z,41.22
2022-10-16T02:26:46.443Z,45.17
2022-10-16T02:29:17.722Z,43.15
2022-10-16T02:31:50.353Z,44.00
2022-10-16T02:34:18.851Z,43.50
2022-10-16T02:36:47.079Z,43.28
2022-10-16T02:39:15.384Z,44.25
2022-10-16T02:41:42.316Z,44.97
2022-10-16T02:44:09.193Z,41.35
2022-10-16T02:46:35.914Z,44.10
2022-10-16T02:49:02.808Z,43.15
2022-10-16T02:51:29.626Z,42.78
2022-10-16T02:53:56.451Z,44.53
2022-10-16T02:56:23.381Z,44.63
2022-10-16T02:58:50.184Z,46.17
2022-10-16T03:01:17.890Z,43.53
2022-10-16T03:03:44.726Z,44.67
2022-10-16T03:06:12.234Z,44.08
2022-10-16T03:08:39.466Z,43.47
2022-10-16T03:11:06.458Z,42.30
2022-10-16T03:13:33.279Z,44.60
2022-10-16T03:15:59.991Z,46.35
2022-10-16T03:18:26.780Z,45.55
2022-10-16T03:20:53.528Z,44.83
2022-10-16T03:23:20.352Z,45.08
2022-10-16T03:25:48.370Z,42.38
2022-10-16T03:28:15.311Z,44.00
2022-10-16T03:30:42.066Z,46.72
2022-10-16T03:33:08.814Z,47.33
2022-10-16T03:35:35.597Z,48.50
2022-10-16T03:38:02.457Z,46.40
2022-10-16T03:40:29.319Z,47.75
2022-10-16T03:42:58.233Z,50.28
2022-10-16T03:45:25.456Z,48.58
2022-10-16T03:47:52.196Z,49.92
2022-10-16T03:50:18.968Z,49.15
2022-10-16T03:52:45.746Z,51.65
2022-10-16T03:55:12.602Z,51.75
2022-10-16T03:57:39.447Z,52.63
2022-10-16T04:00:07.090Z,50.53
2022-10-16T04:02:33.948Z,50.08
2022-10-16T04:05:00.733Z,51.70
2022-10-16T04:07:27.797Z,52.30
2022-10-16T04:09:54.843Z,52.97
2022-10-16T04:12:21.564Z,53.17
2022-10-16T04:14:48.323Z,49.00
2022-10-16T04:17:15.222Z,50.50
2022-10-16T04:19:41.967Z,50.90
2022-10-16T04:22:08.728Z,54.05
2022-10-16T04:24:35.542Z,55.75
2022-10-16T04:27:02.261Z,54.78
2022-10-16T04:29:29.141Z,54.50
2022-10-16T04:31:56.016Z,53.78
2022-10-16T04:34:22.725Z,52.28
2022-10-16T04:36:50.432Z,54.72
2022-10-16T04:39:17.576Z,54.70
2022-10-16T04:41:44.338Z,49.60
2022-10-16T04:44:11.066Z,55.40
2022-10-16T04:46:37.808Z,55.78
2022-10-16T04:49:04.610Z,54.03
2022-10-16T04:51:31.334Z,56.08
2022-10-16T04:53:58.312Z,54.80
2022-10-16T04:56:25.468Z,52.90
2022-10-16T04:58:52.430Z,52.97
2022-10-16T05:01:19.253Z,55.15
2022-10-16T05:03:46.035Z,56.95
2022-10-16T05:06:12.939Z,56.53
2022-10-16T05:08:39.673Z,55.78
2022-10-16T05:11:06.486Z,58.08
2022-10-16T05:13:33.255Z,55.70
2022-10-16T05:16:00.007Z,56.63
2022-10-16T05:18:26.724Z,54.42
2022-10-16T05:20:53.512Z,56.00
2022-10-16T05:23:20.390Z,54.67
2022-10-16T05:25:54.705Z,51.42
2022-10-16T05:28:21.610Z,53.58
2022-10-16T05:30:48.414Z,54.47
2022-10-16T05:33:15.278Z,54.92
2022-10-16T05:35:42.203Z,52.28
2022-10-16T05:38:08.943Z,51.08
2022-10-16T05:40:36.199Z,54.90
2022-10-16T05:43:02.946Z,52.30
2022-10-16T05:45:29.695Z,54.30
2022-10-16T05:47:56.474Z,54.45
2022-10-16T05:50:23.205Z,54.38
2022-10-16T05:52:49.929Z,54.80
2022-10-16T05:55:16.698Z,52.40
2022-10-16T05:57:43.496Z,52.10
2022-10-16T06:00:11.015Z,51.60
2022-10-16T06:02:37.839Z,54.55
2022-10-16T06:05:04.906Z,54.40
2022-10-16T06:07:36.711Z,52.35
2022-10-16T06:10:05.595Z,51.17
2022-10-16T06:12:32.424Z,51.85
2022-10-16T06:14:59.150Z,52.95
2022-10-16T06:17:26.069Z,52.15
2022-10-16T06:19:53.021Z,52.03
2022-10-16T06:22:19.810Z,52.17
2022-10-16T06:24:47.517Z,54.10
2022-10-16T06:27:14.350Z,53.83
2022-10-16T06:29:41.128Z,52.28
2022-10-16T06:32:07.871Z,50.83
2022-10-16T06:34:37.627Z,50.38
2022-10-16T06:37:04.397Z,52.92
2022-10-16T06:39:31.314Z,51.30
2022-10-16T06:41:58.163Z,49.65
2022-10-16T06:44:24.939Z,52.78
2022-10-16T06:46:52.258Z,51.30
2022-10-16T06:49:23.346Z,50.05
2022-10-16T06:51:50.422Z,49.55
2022-10-16T06:54:17.606Z,50.30
2022-10-16T06:56:44.510Z,49.42
2022-10-16T06:59:11.399Z,50.13
2022-10-16T07:01:38.107Z,48.00
2022-10-16T07:04:04.942Z,48.00
2022-10-16T07:06:34.562Z,49.78
2022-10-16T07:09:04.978Z,47.72
2022-10-16T07:11:32.041Z,49.80
2022-10-16T07:13:58.818Z,48.60
2022-10-16T07:16:28.308Z,48.72
2022-10-16T07:19:01.177Z,50.00
2022-10-16T07:21:37.357Z,49.58
2022-10-16T07:24:06.999Z,46.70
2022-10-16T07:26:36.826Z,46.17
2022-10-16T07:29:04.570Z,46.40
2022-10-16T07:31:31.936Z,46.17
2022-10-16T07:34:00.824Z,44.72
2022-10-16T07:36:27.683Z,44.50
2022-10-16T07:38:57.187Z,45.63
2022-10-16T07:41:26.687Z,46.40
2022-10-16T07:43:55.474Z,45.85
2022-10-16T07:46:24.107Z,46.50
2022-10-16T07:48:51.381Z,45.13
2022-10-16T07:51:20.060Z,45.58
2022-10-16T07:53:47.755Z,46.70
2022-10-16T07:56:15.271Z,47.35
2022-10-16T07:58:42.436Z,46.42
2022-10-16T08:01:11.127Z,47.25
2022-10-16T08:03:38.263Z,47.45
2022-10-16T08:06:05.685Z,48.28
2022-10-16T08:08:32.501Z,46.22
2022-10-16T08:10:59.327Z,48.08
2022-10-16T08:13:27.599Z,49.55
2022-10-16T08:15:55.427Z,47.70
2022-10-16T08:18:22.476Z,47.65
2022-10-16T08:20:49.333Z,47.28
2022-10-16T08:23:16.048Z,46.50
2022-10-16T08:25:43.024Z,46.80
2022-10-16T08:28:11.660Z,47.63
2022-10-16T08:30:38.808Z,46.65
2022-10-16T08:33:06.890Z,45.72
2022-10-16T08:35:33.893Z,45.72
2022-10-16T08:38:00.634Z,46.45
2022-10-16T08:40:32.158Z,47.05
2022-10-16T08:43:16.803Z,47.60
2022-10-16T08:46:37.120Z,47.05
2022-10-16T08:49:04.775Z,44.83
2022-10-16T08:51:37.056Z,45.60
2022-10-16T08:54:12.794Z,45.83
2022-10-16T08:56:39.526Z,45.97
2022-10-16T08:59:12.179Z,45.28
2022-10-16T09:01:42.817Z,44.83
2022-10-16T09:04:31.947Z,44.25
2022-10-16T09:07:13.133Z,44.72
2022-10-16T09:09:59.969Z,45.08
2022-10-16T09:12:46.829Z,45.47
2022-10-16T09:15:46.486Z,43.85
2022-10-16T09:18:32.727Z,46.10
2022-10-16T09:21:19.477Z,46.20
2022-10-16T09:23:46.776Z,45.42
2022-10-16T09:26:15.357Z,44.45
2022-10-16T09:28:42.617Z,44.67
2022-10-16T09:31:18.462Z,44.88
2022-10-16T09:33:49.013Z,46.13
2022-10-16T09:36:16.054Z,47.05
2022-10-16T09:38:42.876Z,45.53
2022-10-16T09:41:22.666Z,46.60
2022-10-16T09:43:58.452Z,47.80
2022-10-16T09:46:30.691Z,46.30
2022-10-16T09:49:00.524Z,46.35
2022-10-16T09:51:27.374Z,45.95
2022-10-16T09:54:21.528Z,44.47
2022-10-16T09:56:52.923Z,45.60
2022-10-16T09:59:21.960Z,46.70
2022-10-16T10:01:54.637Z,47.05
2022-10-16T10:04:23.062Z,47.45
2022-10-16T10:06:58.036Z,45.33
2022-10-16T10:09:45.361Z,44.60
2022-10-16T10:12:30.319Z,47.03
2022-10-16T10:15:22.380Z,46.47
2022-10-16T10:17:50.899Z,45.95
2022-10-16T10:20:23.798Z,47.22
2022-10-16T10:22:52.069Z,45.90
2022-10-16T10:25:40.082Z,48.30
2022-10-16T10:28:19.430Z,47.22
2022-10-16T10:31:18.101Z,49.30
2022-10-16T10:34:05.775Z,47.60
2022-10-16T10:36:38.055Z,46.03
2022-10-16T10:39:35.059Z,47.70
2022-10-16T10:42:14.290Z,48.17
2022-10-16T10:44:59.533Z,47.65
2022-10-16T10:47:41.334Z,48.72
2022-10-16T10:55:21.344Z,46.95
2022-10-16T10:58:00.334Z,49.28
2022-10-16T11:00:45.160Z,49.05
2022-10-16T11:03:11.906Z,47.85
2022-10-16T11:05:44.439Z,49.58
2022-10-16T11:08:30.131Z,46.25
2022-10-16T11:11:01.449Z,50.08
2022-10-16T11:13:44.356Z,49.58
2022-10-16T11:16:39.364Z,50.47
2022-10-16T11:19:12.101Z,48.58
2022-10-16T11:21:51.371Z,52.17
2022-10-16T11:24:45.991Z,49.08
2022-10-16T11:27:18.243Z,52.10
2022-10-16T11:29:57.600Z,49.38
2022-10-16T11:32:36.752Z,51.58
2022-10-16T11:35:20.032Z,52.53
2022-10-16T11:37:49.353Z,48.22
2022-10-16T11:40:26.954Z,50.65
2022-10-16T11:43:03.161Z,50.67
2022-10-16T11:45:35.754Z,53.10
2022-10-16T11:48:25.546Z,50.78
2022-10-16T11:50:59.577Z,50.72
2022-10-16T11:53:47.955Z,49.58
2022-10-16T11:56:20.155Z,50.05
2022-10-16T11:58:53.784Z,50.38
2022-10-16T12:04:04.005Z,48.38
2022-10-16T12:06:45.874Z,48.05
2022-10-16T12:09:22.845Z,50.03
2022-10-16T12:11:49.924Z,47.17
2022-10-16T12:14:16.650Z,47.42
2022-10-16T12:16:59.295Z,48.55
2022-10-16T12:19:28.655Z,50.78
2022-10-16T12:22:01.340Z,46.90
2022-10-16T12:24:43.664Z,46.58
2022-10-16T12:27:33.132Z,45.97
2022-10-16T12:30:02.517Z,45.67
2022-10-16T12:32:47.133Z,45.78
2022-10-16T12:35:27.407Z,45.28
2022-10-16T12:37:55.229Z,45.08
2022-10-16T12:40:29.473Z,45.00
2022-10-16T12:42:56.370Z,45.65
2022-10-16T12:45:35.380Z,45.45
2022-10-16T12:48:05.763Z,43.72
2022-10-16T12:50:38.506Z,46.08
2022-10-16T12:53:23.230Z,42.53
2022-10-16T12:56:05.505Z,44.28
2022-10-16T12:58:59.929Z,42.95
2022-10-16T13:02:02.397Z,43.28
2022-10-16T13:04:52.345Z,44.92
2022-10-16T13:07:37.832Z,42.30
2022-10-16T13:10:29.718Z,42.13
2022-10-16T13:13:11.557Z,41.33
2022-10-16T13:15:55.079Z,39.67
2022-10-16T13:18:36.738Z,39.58
2022-10-16T13:24:23.673Z,38.40
2022-10-16T13:27:14.566Z,38.85
2022-10-16T13:29:42.756Z,37.25
2022-10-16T13:32:13.045Z,40.63
2022-10-16T13:34:49.665Z,37.17
2022-10-16T13:37:24.825Z,36.42
2022-10-16T13:39:51.993Z,37.85
2022-10-16T13:42:28.147Z,38.70
2022-10-16T13:44:57.167Z,37.05
2022-10-16T13:47:31.190Z,37.95
2022-10-16T13:50:15.883Z,38.13
2022-10-16T13:52:42.630Z,38.03
2022-10-16T13:55:12.387Z,35.55
2022-10-16T13:57:39.336Z,36.45
2022-10-16T14:00:19.674Z,37.47
2022-10-16T14:02:51.481Z,37.58
2022-10-16T14:05:18.599Z,36.35
2022-10-16T14:07:51.785Z,36.35
2022-10-16T14:10:23.322Z,36.63
2022-10-16T14:12:58.707Z,35.75
2022-10-16T14:15:25.905Z,35.25
2022-10-16T14:17:53.872Z,35.35
2022-10-16T14:20:26.296Z,36.13
2022-10-16T14:23:24.036Z,36.47
2022-10-16T14:25:50.878Z,34.38
2022-10-16T14:28:20.577Z,35.78
2022-10-16T14:30:55.032Z,35.70
2022-10-16T14:33:34.480Z,36.83
2022-10-16T14:36:12.420Z,37.50
2022-10-16T14:38:41.149Z,36.47
2022-10-16T14:41:08.067Z,37.83
2022-10-16T14:43:40.569Z,35.15
2022-10-16T14:46:17.848Z,36.50
2022-10-16T14:48:50.758Z,37.22
2022-10-16T14:51:18.935Z,35.28
2022-10-16T14:53:48.053Z,35.83
2022-10-16T14:56:26.078Z,37.65
2022-10-16T14:58:53.961Z,38.17
2022-10-16T15:01:21.144Z,35.85
2022-10-16T15:03:48.369Z,36.83
2022-10-16T15:06:16.734Z,37.92
2022-10-16T15:08:46.004Z,37.67
2022-10-16T15:11:18.792Z,36.78
2022-10-16T15:13:46.054Z,36.75
2022-10-16T15:16:15.406Z,36.20
2022-10-16T15:18:42.299Z,36.88
2022-10-16T15:21:09.422Z,36.83
2022-10-16T15:23:36.229Z,38.25
2022-10-16T15:26:03.033Z,36.80
2022-10-16T15:28:29.854Z,35.88
2022-10-16T15:30:58.248Z,37.72
2022-10-16T15:33:37.093Z,35.90
2022-10-16T15:36:06.766Z,35.28
2022-10-16T15:38:33.501Z,36.30
2022-10-16T15:41:00.346Z,35.92
2022-10-16T15:43:27.446Z,35.83
2022-10-16T15:46:10.589Z,34.42
2022-10-16T15:48:37.424Z,35.03
2022-10-16T15:51:08.001Z,35.38
2022-10-16T15:53:35.194Z,34.85
2022-10-16T15:56:10.171Z,33.13
2022-10-16T15:58:37.513Z,33.85
2022-10-16T16:01:05.194Z,34.78
2022-10-16T16:03:35.783Z,34.60
2022-10-16T16:06:12.216Z,37.60
2022-10-16T16:08:39.322Z,35.55
2022-10-16T16:11:07.382Z,36.13
2022-10-16T16:13:34.629Z,38.30
2022-10-16T16:16:01.465Z,36.70
2022-10-16T16:18:29.634Z,35.10
2022-10-16T16:20:56.684Z,36.35
2022-10-16T16:23:23.592Z,35.50
2022-10-16T16:26:12.574Z,34.45
2022-10-16T16:28:40.866Z,33.97
2022-10-16T16:31:08.449Z,33.58
2022-10-16T16:33:35.239Z,35.08
2022-10-16T16:36:04.498Z,37.13
2022-10-16T16:38:32.813Z,37.30
2022-10-16T16:40:59.646Z,36.08
2022-10-16T16:43:29.930Z,38.47
2022-10-16T16:45:56.717Z,36.85
2022-10-16T16:48:23.715Z,38.38
2022-10-16T16:50:50.521Z,38.88
2022-10-16T16:53:17.450Z,38.72
2022-10-16T16:55:44.214Z,39.80
2022-10-16T16:58:11.093Z,40.47
2022-10-16T17:00:37.887Z,40.00
2022-10-16T17:03:04.677Z,39.15
2022-10-16T17:05:31.563Z,41.63
2022-10-16T17:07:58.369Z,42.53
2022-10-16T17:10:25.124Z,42.85
2022-10-16T17:12:56.833Z,43.08
2022-10-16T17:17:50.720Z,41.35
2022-10-16T17:20:17.480Z,42.53
2022-10-16T17:22:45.072Z,43.50
2022-10-16T17:25:14.959Z,44.10
2022-10-16T17:27:41.736Z,40.50
2022-10-16T17:30:12.173Z,43.50
2022-10-16T17:32:38.920Z,43.95
2022-10-16T17:35:06.808Z,46.20
2022-10-16T17:37:33.589Z,44.30
2022-10-16T17:40:00.382Z,45.20
2022-10-16T17:42:27.599Z,45.25
2022-10-16T17:44:54.558Z,44.45
2022-10-16T17:47:21.561Z,45.22
2022-10-16T17:49:48.288Z,45.17
2022-10-16T17:52:15.261Z,44.95
2022-10-16T17:54:42.070Z,46.17
2022-10-16T17:57:08.826Z,46.35
2022-10-16T17:59:35.656Z,45.33
2022-10-16T18:02:02.901Z,47.00
2022-10-16T18:04:29.823Z,42.70
2022-10-16T18:06:56.627Z,46.60
2022-10-16T18:09:23.490Z,48.47
2022-10-16T18:11:55.562Z,47.53
2022-10-16T18:14:22.671Z,48.67
2022-10-16T18:19:22.853Z,47.65
2022-10-16T18:21:49.648Z,44.75
2022-10-16T18:24:18.165Z,48.13
2022-10-16T18:26:45.575Z,46.15
2022-10-16T18:29:13.204Z,49.08
2022-10-16T18:31:42.696Z,44.90
2022-10-16T18:34:10.387Z,48.72
2022-10-16T18:36:37.451Z,46.90
2022-10-16T18:39:09.569Z,43.67
2022-10-16T18:41:41.785Z,48.40
2022-10-16T18:44:13.260Z,47.55
2022-10-16T18:46:40.644Z,47.72
2022-10-16T18:49:10.541Z,49.67
2022-10-16T18:51:40.795Z,46.53
2022-10-16T18:54:10.353Z,47.35
2022-10-16T18:56:37.428Z,50.30
2022-10-16T18:59:06.291Z,47.38
2022-10-16T19:01:35.803Z,47.97
2022-10-16T19:04:06.726Z,46.25
2022-10-16T19:06:36.037Z,50.60
2022-10-16T19:09:04.046Z,50.42
2022-10-16T19:11:31.665Z,50.70
2022-10-16T19:13:58.562Z,48.67
2022-10-16T19:16:31.346Z,50.67
2022-10-16T19:19:00.956Z,49.47
2022-10-16T19:21:30.049Z,49.17
2022-10-16T19:23:59.813Z,48.10
2022-10-16T19:26:31.586Z,49.70
2022-10-16T19:29:06.392Z,48.50
2022-10-16T19:31:34.486Z,49.47
2022-10-16T19:34:03.392Z,47.85
2022-10-16T19:36:32.743Z,49.13
2022-10-16T19:39:02.290Z,48.47
2022-10-16T19:41:30.976Z,47.70
2022-10-16T19:44:05.458Z,48.42
2022-10-16T19:46:33.656Z,48.75
2022-10-16T19:49:06.724Z,50.25
2022-10-16T19:51:33.983Z,43.67
2022-10-16T19:54:04.377Z,49.05
2022-10-16T19:56:32.851Z,48.75
2022-10-16T19:59:02.068Z,49.13
2022-10-16T20:01:31.550Z,47.20
2022-10-16T20:04:00.294Z,48.20
2022-10-16T20:06:29.109Z,48.15
2022-10-16T20:08:58.197Z,47.08
2022-10-16T20:11:30.443Z,48.63
2022-10-16T20:13:57.923Z,50.75
2022-10-16T20:16:26.135Z,46.90
2022-10-16T20:18:53.652Z,49.88
2022-10-16T20:21:26.188Z,50.95
2022-10-16T20:23:53.492Z,50.13
2022-10-16T20:26:28.894Z,50.45
2022-10-16T20:28:55.771Z,49.50
2022-10-16T20:31:27.876Z,49.33
2022-10-16T20:33:56.611Z,49.00
2022-10-16T20:36:26.070Z,51.63
2022-10-16T20:38:53.747Z,50.17
2022-10-16T20:41:20.673Z,46.80
2022-10-16T20:43:48.638Z,50.17
2022-10-16T20:46:18.646Z,47.90
2022-10-16T20:48:47.125Z,47.80
2022-10-16T20:51:16.015Z,49.33
2022-10-16T20:53:44.073Z,48.20
2022-10-16T20:56:12.622Z,49.70
2022-10-16T20:58:41.087Z,52.47
2022-10-16T21:01:17.150Z,49.47
2022-10-16T21:03:44.998Z,48.78
2022-10-16T21:06:12.176Z,49.60
2022-10-16T21:08:40.908Z,48.30
2022-10-16T21:11:11.500Z,49.65
2022-10-16T21:13:38.685Z,50.75
2022-10-16T21:16:06.068Z,49.70
2022-10-16T21:18:33.217Z,50.13
2022-10-16T21:20:59.988Z,51.33
2022-10-16T21:23:27.093Z,50.13
2022-10-16T21:25:53.933Z,49.63
2022-10-16T21:28:20.932Z,53.50
2022-10-16T21:30:47.737Z,50.65
2022-10-16T21:33:14.518Z,51.97
2022-10-16T21:35:41.234Z,51.47
2022-10-16T21:38:08.002Z,52.50
2022-10-16T21:40:34.972Z,52.78
2022-10-16T21:43:01.748Z,52.88
2022-10-16T21:45:28.555Z,50.38
2022-10-16T21:47:58.217Z,50.97
2022-10-16T21:50:24.994Z,48.80
2022-10-16T21:52:51.866Z,52.60
2022-10-16T21:55:18.642Z,49.45
2022-10-16T21:57:45.392Z,50.90
2022-10-16T22:00:12.668Z,50.10
2022-10-16T22:02:39.486Z,53.47
2022-10-16T22:05:06.478Z,47.90
2022-10-16T22:07:33.265Z,51.88
2022-10-16T22:10:00.028Z,51.25
2022-10-16T22:12:26.976Z,51.35
2022-10-16T22:14:53.750Z,54.00
2022-10-16T22:17:20.609Z,51.63
2022-10-16T22:19:47.441Z,51.72
2022-10-16T22:22:14.245Z,52.42
2022-10-16T22:24:41.477Z,52.05
2022-10-16T22:27:08.333Z,49.15
2022-10-16T22:29:35.097Z,49.65
2022-10-16T22:32:01.858Z,50.17
2022-10-16T22:34:29.524Z,49.42
2022-10-16T22:36:56.279Z,51.88
2022-10-16T22:39:23.141Z,46.00
2022-10-16T22:41:49.939Z,52.28
2022-10-16T22:44:16.739Z,49.17
2022-10-16T22:46:43.544Z,53.85
2022-10-16T22:49:10.398Z,54.10
2022-10-16T22:51:37.352Z,52.90
2022-10-16T22:54:04.239Z,50.75
2022-10-16T22:56:30.932Z,51.72
2022-10-16T22:58:57.724Z,53.50
2022-10-16T23:01:30.939Z,54.53
2022-10-16T23:03:58.137Z,51.70
2022-10-16T23:06:25.210Z,51.83
2022-10-16T23:08:53.466Z,55.55
2022-10-16T23:11:20.987Z,55.90
2022-10-16T23:13:47.783Z,53.05
2022-10-16T23:16:17.218Z,54.17
2022-10-16T23:18:45.028Z,54.33
2022-10-16T23:21:16.703Z,54.80
2022-10-16T23:23:44.288Z,54.10
2022-10-16T23:26:12.959Z,54.35
2022-10-16T23:28:40.103Z,53.95
2022-10-16T23:31:07.917Z,53.75
2022-10-16T23:33:35.793Z,53.03
2022-10-16T23:36:07.725Z,55.95
2022-10-16T23:41:01.690Z,51.47
2022-10-16T23:43:28.437Z,52.42
2022-10-16T23:45:55.267Z,55.75
2022-10-16T23:48:22.049Z,52.42
2022-10-16T23:50:48.793Z,53.85
2022-10-16T23:53:16.434Z,52.13
2022-10-16T23:55:43.460Z,55.97
2022-10-16T23:58:10.384Z,54.88
